Time;durP1;ratioP1;P1;durP2;ratioP2;P2;SDS_P1;SDS_P2;PMS_P1;PMS_P2;Temp;Humidity;BMP_temperature;BMP_pressure;BME280_temperature;BME280_humidity;BME280_pressure;Samples;Min_cycle;Max_cycle;Signal;HPM_P1;HPM_P2
2020/12/23 00:00:17;;;;;;;54.27;21.55;;;;;;;-6.39;81.85;101988.01;1749997;82;22605;-34
2020/12/23 00:02:45;;;;;;;44.75;20.95;;;;;;;-6.39;81.92;101990.53;1749893;81;20995;-36
2020/12/23 00:05:14;;;;;;;58.85;22.93;;;;;;;-6.37;81.90;101976.39;1749945;82;21034;-35
2020/12/23 00:07:42;;;;;;;52.50;21.60;;;;;;;-6.37;81.95;101973.88;1749913;82;21589;-35
2020/12/23 00:10:10;;;;;;;57.25;22.93;;;;;;;-6.37;82.02;101976.39;1749976;82;21023;-34
2020/12/23 00:12:38;;;;;;;51.88;21.05;;;;;;;-6.37;82.08;101970.45;1749938;82;22243;-35
2020/12/23 00:15:07;;;;;;;53.55;22.77;;;;;;;-6.33;82.17;101967.80;1749912;81;20979;-35
2020/12/23 00:17:35;;;;;;;61.70;24.32;;;;;;;-6.32;82.14;101965.77;1749907;81;21058;-35
2020/12/23 00:20:04;;;;;;;54.08;22.67;;;;;;;-6.34;82.21;101964.38;1749931;82;20971;-35
2020/12/23 00:22:32;;;;;;;51.68;21.85;;;;;;;-6.32;82.37;101964.52;1749913;82;20900;-36
2020/12/23 00:25:00;;;;;;;65.90;23.85;;;;;;;-6.28;82.39;101962.71;1750034;82;22746;-35
2020/12/23 00:27:28;;;;;;;66.33;23.35;;;;;;;-6.25;82.37;101960.41;1749839;82;21185;-34
2020/12/23 00:29:56;;;;;;;68.17;24.45;;;;;;;-6.22;82.32;101961.89;1749932;82;20995;-36
2020/12/23 00:32:28;;;;;;;56.80;24.20;;;;;;;-6.19;82.27;101956.22;1749920;82;20880;-35
2020/12/23 00:34:56;;;;;;;65.50;24.25;;;;;;;-6.20;82.26;101960.36;1742686;80;21034;-33
2020/12/23 00:37:25;;;;;;;62.27;23.52;;;;;;;-6.17;82.33;101945.86;1736634;82;22816;-35
2020/12/23 00:39:53;;;;;;;49.88;22.70;;;;;;;-6.12;82.21;101950.48;1742777;81;20952;-35
2020/12/23 00:42:22;;;;;;;57.55;23.60;;;;;;;-6.14;82.08;101948.23;1736027;82;20936;-33
2020/12/23 00:44:50;;;;;;;47.93;23.45;;;;;;;-6.16;82.02;101943.83;1735797;82;21099;-35
2020/12/23 00:47:18;;;;;;;50.23;21.93;;;;;;;-6.19;82.00;101944.88;1735941;82;21046;-35
2020/12/23 00:49:46;;;;;;;56.28;23.05;;;;;;;-6.19;82.03;101957.08;1735863;82;21110;-35
2020/12/23 00:52:14;;;;;;;58.65;23.62;;;;;;;-6.20;82.01;101950.28;1735850;82;21003;-36
2020/12/23 00:54:42;;;;;;;54.67;22.42;;;;;;;-6.21;81.99;101949.78;1735873;82;21067;-34
2020/12/23 00:57:11;;;;;;;59.95;24.40;;;;;;;-6.21;81.93;101949.42;1735824;82;21035;-35
2020/12/23 00:59:40;;;;;;;65.87;24.35;;;;;;;-6.21;81.85;101951.05;1735918;82;20988;-34
2020/12/23 01:02:08;;;;;;;54.50;23.47;;;;;;;-6.25;81.97;101948.70;1690728;82;21379;-35
2020/12/23 01:04:35;;;;;;;54.95;23.95;;;;;;;-6.25;81.97;101957.52;1735738;82;21031;-34
2020/12/23 01:07:04;;;;;;;57.15;24.15;;;;;;;-6.25;82.08;101950.33;1735911;82;20920;-35
2020/12/23 01:09:33;;;;;;;62.80;23.95;;;;;;;-6.23;82.05;101948.80;1735763;82;21447;-35
2020/12/23 01:12:00;;;;;;;61.98;24.02;;;;;;;-6.23;82.09;101938.71;1735799;82;20995;-34
2020/12/23 01:14:28;;;;;;;60.63;24.10;;;;;;;-6.21;82.08;101925.47;1735938;82;21377;-36
2020/12/23 01:16:56;;;;;;;61.23;24.57;;;;;;;-6.20;82.04;101918.77;1735830;82;21016;-35
2020/12/23 01:19:24;;;;;;;49.23;23.73;;;;;;;-6.23;82.09;101913.13;1735872;82;20990;-35
2020/12/23 01:21:52;;;;;;;61.28;24.72;;;;;;;-6.24;82.25;101914.27;1735912;82;20940;-36
2020/12/23 01:24:20;;;;;;;62.10;25.62;;;;;;;-6.23;82.29;101910.61;1735910;82;20984;-36
2020/12/23 01:26:48;;;;;;;52.43;23.42;;;;;;;-6.23;82.28;101907.20;1735856;82;21379;-35
2020/12/23 01:29:16;;;;;;;56.48;24.35;;;;;;;-6.24;82.29;101901.66;1735841;82;21043;-35
2020/12/23 01:31:44;;;;;;;52.45;23.87;;;;;;;-6.27;82.48;101897.30;1735884;82;20980;-34
2020/12/23 01:34:12;;;;;;;55.12;23.10;;;;;;;-6.23;82.38;101896.75;1735950;82;21039;-35
2020/12/23 01:36:40;;;;;;;59.23;24.80;;;;;;;-6.24;82.41;101900.41;1735923;82;20991;-34
2020/12/23 01:39:08;;;;;;;59.83;25.80;;;;;;;-6.24;82.42;101889.95;1736272;81;22846;-35
2020/12/23 01:41:36;;;;;;;63.33;25.27;;;;;;;-6.23;82.44;101887.03;1749795;82;20888;-38
2020/12/23 01:44:03;;;;;;;66.35;25.20;;;;;;;-6.22;82.50;101892.20;1749804;82;20924;-34
2020/12/23 01:46:33;;;;;;;55.00;24.77;;;;;;;-6.19;82.36;101889.41;1749784;82;20924;-36
2020/12/23 01:49:06;;;;;;;56.85;24.30;;;;;;;-6.20;82.30;101891.03;1749967;82;20928;-35
2020/12/23 01:51:36;;;;;;;60.83;24.60;;;;;;;-6.22;82.35;101890.05;1749808;81;21474;-34
2020/12/23 01:54:04;;;;;;;64.72;24.12;;;;;;;-6.18;82.35;101889.89;1722526;82;21181;-34
2020/12/23 01:56:32;;;;;;;54.65;23.90;;;;;;;-6.21;82.23;101886.39;1749872;81;20932;-34
2020/12/23 01:59:00;;;;;;;67.82;24.80;;;;;;;-6.22;82.11;101882.48;1722465;82;20991;-34
2020/12/23 02:01:28;;;;;;;53.90;24.07;;;;;;;-6.26;82.26;101876.73;1749888;81;20995;-34
2020/12/23 02:03:56;;;;;;;54.53;23.47;;;;;;;-6.26;82.28;101877.62;1676247;82;21217;-36
2020/12/23 02:06:25;;;;;;;64.20;23.62;;;;;;;-6.25;82.22;101873.44;1749730;81;20927;-34
2020/12/23 02:08:53;;;;;;;56.18;23.60;;;;;;;-6.27;82.25;101869.56;1749788;82;20963;-34
2020/12/23 02:11:21;;;;;;;48.55;23.18;;;;;;;-6.28;82.18;101869.07;1749950;82;21015;-34
2020/12/23 02:13:49;;;;;;;58.85;24.52;;;;;;;-6.31;82.33;101869.22;1749916;82;20967;-35
2020/12/23 02:16:17;;;;;;;56.05;24.95;;;;;;;-6.28;82.25;101856.83;1749813;82;21204;-33
2020/12/23 02:18:45;;;;;;;66.72;25.23;;;;;;;-6.31;82.35;101857.88;1749808;81;20976;-34
2020/12/23 02:21:16;;;;;;;53.80;23.42;;;;;;;-6.32;82.41;101859.50;1748191;82;21038;-33
2020/12/23 02:23:44;;;;;;;53.00;23.98;;;;;;;-6.31;82.54;101854.09;1749774;81;20932;-35
2020/12/23 02:26:12;;;;;;;66.10;25.88;;;;;;;-6.30;82.67;101852.06;1749881;80;21042;-35
2020/12/23 02:28:41;;;;;;;63.50;24.15;;;;;;;-6.27;82.61;101852.28;1749854;82;21211;-34
2020/12/23 02:31:09;;;;;;;64.12;25.45;;;;;;;-6.26;82.73;101855.30;1749731;82;20987;-35
2020/12/23 02:33:38;;;;;;;54.35;23.70;;;;;;;-6.25;82.75;101855.42;1749896;81;20975;-33
2020/12/23 02:36:06;;;;;;;60.03;25.82;;;;;;;-6.20;82.78;101854.47;1749750;82;20928;-35
2020/12/23 02:38:34;;;;;;;57.70;24.18;;;;;;;-6.17;82.71;101852.20;1749903;81;20975;-34
2020/12/23 02:41:02;;;;;;;68.42;26.95;;;;;;;-6.16;82.61;101843.87;1749700;81;21467;-35
2020/12/23 02:43:30;;;;;;;64.82;26.02;;;;;;;-6.17;82.52;101843.74;1749715;82;21015;-34
2020/12/23 02:45:58;;;;;;;69.22;26.23;;;;;;;-6.22;82.49;101848.08;1749764;82;21079;-35
2020/12/23 02:48:26;;;;;;;54.45;24.60;;;;;;;-6.24;82.50;101855.91;1749801;82;21428;-36
2020/12/23 02:50:54;;;;;;;67.65;26.07;;;;;;;-6.24;82.63;101860.06;1749889;82;20999;-35
2020/12/23 02:56:04;;;;;;;68.28;25.52;;;;;;;-6.13;82.71;101865.89;1816145;79;22600;-34
2020/12/23 02:58:31;;;;;;;63.58;26.07;;;;;;;-6.14;82.62;101867.55;1789320;80;20919;-36
2020/12/23 03:00:59;;;;;;;73.57;26.02;;;;;;;-6.13;82.59;101868.41;1789321;80;21375;-34
2020/12/23 03:03:27;;;;;;;59.23;25.00;;;;;;;-6.14;82.69;101865.03;1789367;80;21010;-36
2020/12/23 03:05:55;;;;;;;62.93;25.95;;;;;;;-6.11;82.65;101860.56;1789188;80;21027;-34
2020/12/23 03:08:23;;;;;;;65.00;25.70;;;;;;;-6.10;82.60;101853.13;1789316;80;20919;-35
2020/12/23 03:10:51;;;;;;;61.35;24.80;;;;;;;-6.08;82.62;101854.11;1789372;80;20939;-35
2020/12/23 03:13:19;;;;;;;66.30;27.32;;;;;;;-6.07;82.63;101859.65;1789273;80;21203;-34
2020/12/23 03:15:46;;;;;;;61.88;25.95;;;;;;;-6.03;82.66;101857.34;1788906;80;20982;-35
2020/12/23 03:18:14;;;;;;;69.53;25.92;;;;;;;-6.01;82.66;101864.63;1789216;80;21026;-35
2020/12/23 03:20:42;;;;;;;61.83;26.27;;;;;;;-6.00;82.71;101859.67;1789226;80;21062;-35
2020/12/23 03:23:10;;;;;;;64.45;26.10;;;;;;;-5.98;82.77;101857.25;1789226;80;20915;-36
2020/12/23 03:25:38;;;;;;;68.80;26.75;;;;;;;-5.94;82.86;101864.26;1789253;80;22727;-33
2020/12/23 03:28:06;;;;;;;56.70;27.20;;;;;;;-5.92;82.79;101854.78;1789283;80;21002;-33
2020/12/23 03:30:34;;;;;;;64.37;26.50;;;;;;;-5.92;82.82;101856.45;1789175;80;21010;-34
2020/12/23 03:33:02;;;;;;;61.75;27.05;;;;;;;-5.89;82.88;101853.25;1789182;80;20983;-35
2020/12/23 03:35:29;;;;;;;59.58;26.60;;;;;;;-5.87;82.86;101858.02;1789221;80;20939;-35
2020/12/23 03:37:59;;;;;;;63.98;25.25;;;;;;;-5.86;82.91;101858.50;1788769;80;21365;-34
2020/12/23 03:40:26;;;;;;;57.73;25.80;;;;;;;-5.85;82.91;101851.06;1789116;80;20998;-34
2020/12/23 03:42:54;;;;;;;63.13;27.27;;;;;;;-5.83;82.89;101851.15;1789192;80;21057;-33
2020/12/23 03:45:22;;;;;;;58.80;25.40;;;;;;;-5.81;82.92;101853.02;1789161;80;20888;-34
2020/12/23 03:47:49;;;;;;;59.18;25.35;;;;;;;-5.80;82.89;101858.96;1789241;80;21049;-35
2020/12/23 03:50:17;;;;;;;61.63;25.43;;;;;;;-5.79;82.84;101854.41;1789160;80;21413;-35
2020/12/23 03:52:45;;;;;;;67.60;26.05;;;;;;;-5.79;82.90;101860.72;1789139;80;21038;-37
2020/12/23 03:55:13;;;;;;;63.30;26.85;;;;;;;-5.78;82.87;101866.25;1782042;80;20983;-33
2020/12/23 03:57:41;;;;;;;58.55;24.57;;;;;;;-5.77;82.92;101864.22;1775534;80;20931;-34
2020/12/23 04:00:10;;;;;;;62.30;26.02;;;;;;;-5.73;82.82;101859.88;1775755;80;20991;-34
2020/12/23 04:02:41;;;;;;;61.70;27.02;;;;;;;-5.77;82.83;101855.39;1775641;80;21271;-35
2020/12/23 04:05:09;;;;;;;57.40;27.17;;;;;;;-5.78;82.84;101853.23;1775629;80;20935;-34
2020/12/23 04:07:37;;;;;;;60.78;28.30;;;;;;;-5.78;82.90;101847.33;1775049;80;20999;-33
2020/12/23 04:10:07;;;;;;;62.20;26.90;;;;;;;-5.77;82.99;101845.30;1775090;80;21023;-35
2020/12/23 04:12:39;;;;;;;62.78;26.33;;;;;;;-5.74;82.97;101845.88;1775164;80;21002;-35
2020/12/23 04:15:06;;;;;;;67.78;25.88;;;;;;;-5.74;82.94;101843.36;1774879;80;21380;-35
2020/12/23 04:17:35;;;;;;;65.40;26.00;;;;;;;-5.74;82.89;101840.83;1775103;80;21157;-35
2020/12/23 04:20:07;;;;;;;63.40;26.75;;;;;;;-5.70;82.86;101837.75;1775080;80;20916;-36
2020/12/23 04:22:36;;;;;;;58.48;26.85;;;;;;;-5.72;82.72;101834.25;1775008;80;21036;-34
2020/12/23 04:25:06;;;;;;;61.58;27.27;;;;;;;-5.73;82.68;101835.91;1775133;80;20932;-34
2020/12/23 04:27:35;;;;;;;67.10;29.05;;;;;;;-5.72;82.64;101841.81;1775155;80;21156;-35
2020/12/23 04:30:04;;;;;;;64.80;25.77;;;;;;;-5.72;82.47;101841.81;1775033;80;20920;-35
2020/12/23 04:32:33;;;;;;;68.25;26.82;;;;;;;-5.73;82.52;101835.02;1775168;80;21427;-36
2020/12/23 04:35:03;;;;;;;66.40;28.12;;;;;;;-5.72;82.45;101835.51;1775024;80;20935;-33
2020/12/23 04:37:34;;;;;;;72.45;27.65;;;;;;;-5.73;82.42;101822.03;1775047;80;21415;-33
2020/12/23 04:40:03;;;;;;;63.83;28.30;;;;;;;-5.70;82.36;101825.13;1775068;80;21426;-36
2020/12/23 04:42:33;;;;;;;66.25;27.73;;;;;;;-5.70;82.29;101823.87;1775071;80;20940;-35
2020/12/23 04:45:02;;;;;;;63.70;28.30;;;;;;;-5.72;82.28;101812.43;1775074;80;20941;-34
2020/12/23 04:47:32;;;;;;;60.28;28.27;;;;;;;-5.70;82.22;101819.72;1775059;80;20896;-36
2020/12/23 04:50:00;;;;;;;60.17;26.73;;;;;;;-5.70;82.15;101817.56;1775141;80;20872;-35
2020/12/23 04:52:34;;;;;;;65.08;27.90;;;;;;;-5.69;82.12;101816.80;1775064;80;22846;-35
2020/12/23 04:55:05;;;;;;;64.58;28.15;;;;;;;-5.70;81.94;101812.52;1776521;80;20983;-34
2020/12/23 04:57:39;;;;;;;66.70;27.82;;;;;;;-5.70;81.91;101813.78;1780851;80;20923;-35
2020/12/23 05:00:08;;;;;;;64.70;28.00;;;;;;;-5.71;81.90;101810.77;1780823;80;20983;-34
2020/12/23 05:02:38;;;;;;;64.97;27.02;;;;;;;-5.72;81.96;101809.91;1780807;80;20935;-34
2020/12/23 05:05:07;;;;;;;65.57;29.00;;;;;;;-5.72;81.93;101804.86;1778688;80;21373;-34
2020/12/23 05:07:35;;;;;;;69.35;28.40;;;;;;;-5.72;81.92;101805.23;1780711;80;20948;-34
2020/12/23 05:10:06;;;;;;;61.90;27.37;;;;;;;-5.70;81.95;101797.38;1780845;80;21438;-35
2020/12/23 05:12:35;;;;;;;69.30;29.10;;;;;;;-5.69;81.97;101797.88;1780790;80;21156;-33
2020/12/23 05:15:05;;;;;;;58.70;26.95;;;;;;;-5.67;81.91;101798.48;1780756;80;20927;-35
2020/12/23 05:17:34;;;;;;;59.55;26.77;;;;;;;-5.66;81.96;101800.23;1780745;80;21379;-34
2020/12/23 05:20:05;;;;;;;62.95;27.37;;;;;;;-5.65;81.94;101796.08;1780802;80;20900;-35
2020/12/23 05:22:32;;;;;;;65.17;25.88;;;;;;;-5.63;81.92;101792.02;1780631;80;21454;-35
2020/12/23 05:25:00;;;;;;;61.65;28.23;;;;;;;-5.63;81.83;101792.87;1728322;80;20924;-34
2020/12/23 05:27:33;;;;;;;65.40;28.87;;;;;;;-5.64;81.88;101796.56;1753064;80;20974;-34
2020/12/23 05:30:02;;;;;;;63.17;28.55;;;;;;;-5.65;81.94;101800.72;1780810;80;21416;-35
2020/12/23 05:32:36;;;;;;;62.38;27.50;;;;;;;-5.62;81.99;101802.59;1780706;80;20931;-35
2020/12/23 05:35:04;;;;;;;56.15;27.45;;;;;;;-5.58;82.05;101812.13;1780747;80;20935;-33
2020/12/23 05:37:32;;;;;;;59.10;27.15;;;;;;;-5.57;82.06;101811.36;1780738;80;21437;-36
2020/12/23 05:40:00;;;;;;;62.03;27.10;;;;;;;-5.54;82.00;101810.30;1781024;80;20939;-34
2020/12/23 05:42:28;;;;;;;64.62;27.45;;;;;;;-5.52;82.01;101809.16;1752570;80;21076;-36
2020/12/23 05:44:58;;;;;;;59.67;27.40;;;;;;;-5.51;81.97;101810.50;1729033;80;21527;-34
2020/12/23 05:47:26;;;;;;;61.53;27.58;;;;;;;-5.48;82.00;101815.77;1780812;80;21003;-34
2020/12/23 05:49:54;;;;;;;65.35;27.85;;;;;;;-5.45;81.97;101807.91;1780732;80;21133;-33
2020/12/23 05:52:22;;;;;;;62.83;27.95;;;;;;;-5.43;81.98;101812.30;1780825;80;20987;-35
2020/12/23 05:54:51;;;;;;;52.20;25.20;;;;;;;-5.41;81.96;101812.42;1780739;80;21149;-34
2020/12/23 05:57:20;;;;;;;58.13;26.68;;;;;;;-5.41;81.97;101808.63;1780514;80;20949;-34
2020/12/23 05:59:48;;;;;;;57.85;27.30;;;;;;;-5.39;81.99;101800.78;1780424;80;20961;-35
2020/12/23 06:02:16;;;;;;;58.02;26.77;;;;;;;-5.36;81.97;101804.36;1780614;80;21539;-36
2020/12/23 06:04:44;;;;;;;49.48;23.38;;;;;;;-5.34;81.87;101807.87;1750652;80;20937;-34
2020/12/23 06:07:12;;;;;;;61.10;25.00;;;;;;;-5.33;81.75;101808.76;1780521;80;21388;-34
2020/12/23 06:09:47;;;;;;;56.88;24.90;;;;;;;-5.31;81.74;101813.52;1780492;80;20937;-34
2020/12/23 06:12:22;;;;;;;54.63;24.43;;;;;;;-5.31;81.71;101816.05;1780674;80;21013;-35
2020/12/23 06:15:00;;;;;;;55.23;24.40;;;;;;;-5.29;81.63;101814.50;1780490;80;21424;-35
2020/12/23 06:17:28;;;;;;;51.65;24.07;;;;;;;-5.26;81.61;101812.59;1780560;80;21040;-37
2020/12/23 06:20:00;;;;;;;50.60;23.77;;;;;;;-5.24;81.61;101810.63;1750851;80;20996;-33
2020/12/23 06:22:28;;;;;;;45.20;22.00;;;;;;;-5.22;81.54;101808.23;1780446;80;21514;-36
2020/12/23 06:25:00;;;;;;;48.45;23.80;;;;;;;-5.21;81.50;101808.31;1780402;80;21356;-34
2020/12/23 06:27:26;;;;;;;43.90;22.27;;;;;;;-5.20;81.44;101806.27;1780413;80;20956;-36
2020/12/23 06:29:53;;;;;;;49.73;21.62;;;;;;;-5.16;81.32;101815.35;1726038;80;21063;-33
2020/12/23 06:32:23;;;;;;;55.80;26.10;;;;;;;-5.16;81.23;101815.35;1780486;80;21210;-35
2020/12/23 06:35:00;;;;;;;46.25;22.80;;;;;;;-5.14;81.32;101814.66;1780358;80;20929;-35
2020/12/23 06:37:35;;;;;;;47.65;21.85;;;;;;;-5.12;81.29;101823.22;1780471;80;20993;-34
2020/12/23 06:40:08;;;;;;;50.03;21.12;;;;;;;-5.07;81.25;101814.69;1780584;80;21460;-34
2020/12/23 06:42:36;;;;;;;55.85;21.33;;;;;;;-5.07;80.92;101807.12;1780568;80;21508;-35
2020/12/23 06:45:06;;;;;;;64.03;21.50;;;;;;;-5.07;80.92;101815.95;1780422;80;21363;-37
2020/12/23 06:47:36;;;;;;;42.17;19.57;;;;;;;-5.06;80.99;101812.25;1780413;80;21080;-34
2020/12/23 06:50:13;;;;;;;40.15;20.05;;;;;;;-5.04;80.75;101818.69;1780462;80;20981;-33
2020/12/23 06:52:43;;;;;;;47.13;21.45;;;;;;;-5.02;80.75;101823.45;1780389;80;20921;-33
2020/12/23 06:55:16;;;;;;;51.88;23.22;;;;;;;-4.98;80.60;101829.19;1780514;80;20882;-35
2020/12/23 06:57:49;;;;;;;51.60;23.02;;;;;;;-4.99;80.49;101822.39;1780513;80;21534;-36
2020/12/23 07:00:28;;;;;;;50.43;21.00;;;;;;;-4.98;80.50;101830.86;1780493;80;21020;-34
2020/12/23 07:03:08;;;;;;;47.03;21.17;;;;;;;-4.97;80.43;101834.73;1780469;80;21507;-34
2020/12/23 07:05:42;;;;;;;52.98;23.70;;;;;;;-4.94;80.38;101837.86;1780290;80;21029;-34
2020/12/23 07:08:12;;;;;;;53.50;23.62;;;;;;;-4.94;80.40;101828.62;1780351;80;20886;-34
2020/12/23 07:10:48;;;;;;;56.18;21.93;;;;;;;-4.91;80.34;101830.48;1780459;80;21370;-34
2020/12/23 07:13:19;;;;;;;48.00;22.90;;;;;;;-4.89;80.34;101821.77;1780416;80;20985;-35
2020/12/23 07:15:58;;;;;;;46.90;19.73;;;;;;;-4.88;80.32;101819.72;1780384;80;21531;-34
2020/12/23 07:18:29;;;;;;;42.90;20.30;;;;;;;-4.87;80.20;101817.69;1780432;80;20965;-35
2020/12/23 07:21:02;;;;;;;48.78;22.93;;;;;;;-4.86;80.20;101823.22;1780410;80;21145;-35
2020/12/23 07:23:31;;;;;;;50.45;21.50;;;;;;;-4.89;80.20;101814.18;1780470;80;21206;-34
2020/12/23 07:26:06;;;;;;;42.17;20.45;;;;;;;-4.86;80.22;101816.91;1780354;80;20993;-34
2020/12/23 07:28:42;;;;;;;50.25;22.93;;;;;;;-4.87;80.23;101812.23;1780439;80;21044;-35
2020/12/23 07:31:10;;;;;;;59.88;24.70;;;;;;;-4.85;80.17;101813.61;1780639;80;20906;-34
2020/12/23 07:33:39;;;;;;;51.55;23.22;;;;;;;-4.84;80.21;101816.62;1780463;80;20933;-35
2020/12/23 07:36:08;;;;;;;56.63;25.20;;;;;;;-4.83;80.26;101809.13;1780384;80;21073;-35
2020/12/23 07:38:38;;;;;;;55.28;24.57;;;;;;;-4.80;80.26;101808.46;1780407;80;20941;-34
2020/12/23 07:41:06;;;;;;;52.53;24.32;;;;;;;-4.78;80.29;101806.54;1780416;80;20969;-37
2020/12/23 07:43:34;;;;;;;58.60;25.02;;;;;;;-4.74;80.32;101813.91;1780577;80;20925;-35
2020/12/23 07:46:01;;;;;;;48.85;24.90;;;;;;;-4.70;80.23;101815.00;1780638;80;21012;-34
2020/12/23 07:48:29;;;;;;;56.68;26.17;;;;;;;-4.68;80.17;101811.78;1780612;80;21266;-35
2020/12/23 07:50:59;;;;;;;50.80;22.93;;;;;;;-4.67;80.19;101807.24;1780515;80;21005;-34
2020/12/23 07:53:28;;;;;;;57.85;24.67;;;;;;;-4.65;80.20;101811.12;1780536;80;20996;-35
2020/12/23 07:56:02;;;;;;;66.10;23.50;;;;;;;-4.64;80.17;101816.28;1779664;80;20981;-36
2020/12/23 07:58:32;;;;;;;68.35;23.55;;;;;;;-4.65;79.98;101807.33;1775298;80;20916;-36
2020/12/23 08:01:00;;;;;;;87.55;25.57;;;;;;;-4.67;80.04;101808.50;1775054;80;21201;-34
2020/12/23 08:03:30;;;;;;;64.40;25.00;;;;;;;-4.67;80.00;101808.50;1775089;80;20991;-35
2020/12/23 08:06:10;;;;;;;58.70;25.52;;;;;;;-4.68;79.65;101809.25;1775016;80;21016;-35
2020/12/23 08:08:39;;;;;;;64.37;25.88;;;;;;;-4.69;79.64;101809.17;1775032;80;20979;-34
2020/12/23 08:11:08;;;;;;;78.92;26.97;;;;;;;-4.68;79.81;101807.98;1775118;80;20979;-36
2020/12/23 08:13:37;;;;;;;96.30;29.23;;;;;;;-4.66;79.86;101805.20;1775157;80;22253;-34
2020/12/23 08:16:12;;;;;;;90.12;28.65;;;;;;;-4.64;79.83;101804.02;1775013;80;20979;-36
2020/12/23 08:18:41;;;;;;;88.00;25.57;;;;;;;-4.62;79.95;101805.88;1775058;80;20944;-34
2020/12/23 08:21:14;;;;;;;136.30;29.45;;;;;;;-4.56;80.04;101800.73;1775018;80;20912;-34
2020/12/23 08:23:42;;;;;;;99.60;29.35;;;;;;;-4.56;80.04;101797.80;1775099;80;21858;-35
2020/12/23 08:26:11;;;;;;;59.77;27.02;;;;;;;-4.55;80.00;101792.38;1775120;80;21206;-35
2020/12/23 08:28:40;;;;;;;82.20;28.67;;;;;;;-4.53;80.04;101789.55;1774986;80;21022;-34
2020/12/23 08:31:14;;;;;;;77.05;27.85;;;;;;;-4.52;80.11;101781.19;1774984;80;20971;-35
2020/12/23 08:33:42;;;;;;;105.35;29.25;;;;;;;-4.49;80.03;101778.86;1775031;80;20964;-34
2020/12/23 08:36:10;;;;;;;87.30;33.00;;;;;;;-4.49;80.20;101771.27;1688574;84;20973;-35
2020/12/23 08:38:42;;;;;;;96.50;28.07;;;;;;;-4.48;80.29;101769.23;1775141;80;21431;-33
2020/12/23 08:41:14;;;;;;;117.62;32.48;;;;;;;-4.45;80.35;101764.77;1774971;80;20900;-35
2020/12/23 08:43:49;;;;;;;73.75;27.87;;;;;;;-4.41;80.44;101761.28;1775135;80;21042;-34
2020/12/23 08:46:27;;;;;;;72.27;30.10;;;;;;;-4.38;80.46;101766.53;1775017;80;21011;-33
2020/12/23 08:48:55;;;;;;;65.67;29.05;;;;;;;-4.36;80.36;101761.55;1775189;80;20975;-34
2020/12/23 08:51:25;;;;;;;97.30;31.65;;;;;;;-4.34;80.39;101763.78;1775066;80;21388;-34
2020/12/23 08:53:54;;;;;;;99.72;31.95;;;;;;;-4.32;80.43;101755.91;1774965;80;21015;-35
2020/12/23 08:56:35;;;;;;;71.87;30.45;;;;;;;-4.28;80.48;101743.97;1775477;80;21035;-34
2020/12/23 08:59:09;;;;;;;125.62;30.00;;;;;;;-4.25;80.36;101747.05;1780277;80;20927;-35
2020/12/23 09:01:37;;;;;;;70.80;31.48;;;;;;;-4.21;80.49;101744.83;1780834;80;20959;-34
2020/12/23 09:04:09;;;;;;;65.08;27.35;;;;;;;-4.17;80.36;101744.61;1780763;80;22550;-34
2020/12/23 09:06:40;;;;;;;62.43;28.30;;;;;;;-4.15;80.39;101746.88;1780785;80;20998;-35
2020/12/23 09:09:18;;;;;;;65.92;28.52;;;;;;;-4.15;80.17;101739.28;1780800;80;20979;-34
2020/12/23 09:11:52;;;;;;;71.17;29.10;;;;;;;-4.11;80.33;101739.06;1780777;80;21050;-34
2020/12/23 09:14:25;;;;;;;66.05;29.57;;;;;;;-4.10;80.26;101735.37;1780969;80;20932;-34
2020/12/23 09:17:06;;;;;;;80.87;31.23;;;;;;;-4.08;80.32;101727.49;1780684;80;21099;-35
2020/12/23 09:20:05;;;;;;;74.07;31.50;;;;;;;-4.04;80.40;101720.98;1780729;80;20940;-35
2020/12/23 09:22:38;;;;;;;74.03;29.23;;;;;;;-4.00;80.43;101715.32;1780711;80;21054;-35
2020/12/23 09:25:26;;;;;;;69.55;29.42;;;;;;;-3.93;80.42;101705.16;1775830;79;21538;-34
2020/12/23 09:27:56;;;;;;;76.60;30.75;;;;;;;-3.88;80.39;101695.33;1694902;83;21016;-34
2020/12/23 09:30:43;;;;;;;67.45;30.88;;;;;;;-3.84;80.44;101693.45;1714545;82;21212;-37
2020/12/23 09:33:14;;;;;;;64.58;28.90;;;;;;;-3.81;80.45;101679.34;1735700;80;20933;-34
2020/12/23 09:35:43;;;;;;;77.45;31.87;;;;;;;-3.75;80.42;101685.17;1767986;80;20897;-35
2020/12/23 09:38:24;;;;;;;61.13;29.18;;;;;;;-3.71;80.43;101674.82;1697739;83;21016;-37
2020/12/23 09:40:57;;;;;;;71.10;30.62;;;;;;;-3.67;80.33;101680.54;1777621;80;20909;-36
2020/12/23 09:43:27;;;;;;;60.70;26.10;;;;;;;-3.67;80.24;101674.21;1769128;80;21328;-36
2020/12/23 09:45:57;;;;;;;63.78;27.80;;;;;;;-3.65;80.38;101676.06;1703443;84;21031;-37
2020/12/23 09:48:27;;;;;;;62.17;30.08;;;;;;;-3.60;80.26;101676.34;1703531;83;21513;-35
2020/12/23 09:50:56;;;;;;;69.55;30.17;;;;;;;-3.63;80.11;101667.31;1772898;80;20967;-35
2020/12/23 09:53:25;;;;;;;59.03;25.68;;;;;;;-3.64;80.28;101665.16;1766545;79;21006;-35
2020/12/23 09:55:55;;;;;;;62.90;23.12;;;;;;;-3.59;80.22;101663.28;1761934;81;21035;-35
2020/12/23 09:58:23;;;;;;;53.05;25.17;;;;;;;-3.61;80.01;101665.74;1762881;80;21150;-35
2020/12/23 10:00:52;;;;;;;66.30;25.80;;;;;;;-3.64;79.98;101663.03;1773930;80;21046;-35
2020/12/23 10:03:20;;;;;;;56.95;26.25;;;;;;;-3.65;80.17;101654.55;1760050;80;21575;-34
2020/12/23 10:05:48;;;;;;;70.62;27.75;;;;;;;-3.66;79.99;101651.95;1701817;84;21000;-36
2020/12/23 10:08:16;;;;;;;52.43;24.65;;;;;;;-3.67;80.16;101650.17;1706001;84;21459;-34
2020/12/23 10:10:44;;;;;;;69.25;26.48;;;;;;;-3.65;80.31;101656.22;1774827;80;21029;-34
2020/12/23 10:13:12;;;;;;;57.35;25.25;;;;;;;-3.65;80.32;101655.81;1775428;80;21011;-35
2020/12/23 10:15:40;;;;;;;55.63;25.15;;;;;;;-3.63;80.19;101655.92;1778762;80;20928;-36
2020/12/23 10:18:07;;;;;;;52.35;25.97;;;;;;;-3.61;80.28;101658.14;1708801;83;20949;-36
2020/12/23 10:20:35;;;;;;;65.87;29.35;;;;;;;-3.61;80.31;101653.08;1763815;80;21384;-36
2020/12/23 10:23:03;;;;;;;62.03;29.42;;;;;;;-3.63;80.40;101648.33;1705434;83;21193;-35
2020/12/23 10:25:33;;;;;;;68.70;30.25;;;;;;;-3.63;80.56;101646.65;1765357;80;20944;-33
2020/12/23 10:28:00;;;;;;;69.12;28.87;;;;;;;-3.62;80.52;101643.74;1761246;81;20936;-33
2020/12/23 10:30:30;;;;;;;69.35;27.60;;;;;;;-3.61;80.67;101644.22;1701485;83;21549;-35
2020/12/23 10:33:00;;;;;;;53.33;25.90;;;;;;;-3.58;80.73;101634.27;1691873;83;22234;-34
2020/12/23 10:35:27;;;;;;;66.37;28.45;;;;;;;-3.56;80.35;101633.08;1768358;80;21007;-36
2020/12/23 10:37:55;;;;;;;77.00;27.42;;;;;;;-3.56;80.35;101642.83;1760201;80;21036;-35
2020/12/23 10:40:23;;;;;;;71.02;27.25;;;;;;;-3.57;80.36;101639.81;1759082;80;20932;-36
2020/12/23 10:42:52;;;;;;;63.90;25.62;;;;;;;-3.59;80.37;101641.39;1770437;80;20873;-36
2020/12/23 10:45:20;;;;;;;62.67;27.42;;;;;;;-3.61;80.46;101637.48;1766847;80;21192;-35
2020/12/23 10:47:47;;;;;;;54.80;25.75;;;;;;;-3.61;80.46;101640.02;1771602;80;21011;-35
2020/12/23 10:50:15;;;;;;;51.63;23.83;;;;;;;-3.60;80.50;101638.38;1772997;81;20975;-34
2020/12/23 10:52:43;;;;;;;68.92;27.25;;;;;;;-3.61;80.47;101632.83;1772650;81;21003;-36
2020/12/23 10:55:11;;;;;;;58.65;26.62;;;;;;;-3.63;80.77;101633.99;1627028;81;84126;-35
2020/12/23 10:57:39;;;;;;;56.42;24.87;;;;;;;-3.62;80.76;101637.00;1570429;90;22404;-35
2020/12/23 11:00:07;;;;;;;58.10;25.37;;;;;;;-3.62;80.46;101637.41;1569816;91;21191;-35
2020/12/23 11:02:35;;;;;;;62.70;27.98;;;;;;;-3.65;80.54;101626.70;1569896;91;21383;-35
2020/12/23 11:05:03;;;;;;;62.27;29.40;;;;;;;-3.64;80.58;101632.66;1566916;90;69901;-33
2020/12/23 11:07:32;;;;;;;49.85;24.95;;;;;;;-3.62;80.53;101629.81;1584995;90;21147;-35
2020/12/23 11:10:01;;;;;;;61.05;24.43;;;;;;;-3.61;80.58;101631.16;1585473;90;21423;-34
2020/12/23 11:12:29;;;;;;;67.97;26.90;;;;;;;-3.59;80.58;101630.37;1587532;90;21038;-34
2020/12/23 11:14:57;;;;;;;97.47;34.92;;;;;;;-3.58;80.69;101627.94;1587650;90;20994;-33
2020/12/23 11:17:25;;;;;;;166.50;43.08;;;;;;;-3.58;80.66;101627.94;1587709;90;20957;-33
2020/12/23 11:19:54;;;;;;;153.02;30.52;;;;;;;-3.57;80.80;101621.20;1587691;90;20991;-34
2020/12/23 11:22:22;;;;;;;108.25;28.77;;;;;;;-3.54;80.81;101622.27;1587801;90;21191;-34